sensor_id;sensor_type;location;lat;lon;timestamp;P1;durP1;ratioP1;P2;durP2;ratioP2
24619;SDS011;12763;55.802;37.404;2023-07-28T00:02:08;37.85;;;23.52;;
24619;SDS011;12763;55.802;37.404;2023-07-28T00:04:35;36.88;;;23.98;;
24619;SDS011;12763;55.802;37.404;2023-07-28T00:07:02;37.47;;;24.85;;
24619;SDS011;12763;55.802;37.404;2023-07-28T00:09:28;34.38;;;22.48;;
24619;SDS011;12763;55.802;37.404;2023-07-28T00:11:58;36.50;;;23.48;;
24619;SDS011;12763;55.802;37.404;2023-07-28T00:14:25;34.58;;;23.88;;
24619;SDS011;12763;55.802;37.404;2023-07-28T00:16:52;31.90;;;22.85;;
24619;SDS011;12763;55.802;37.404;2023-07-28T00:19:19;34.03;;;23.15;;
24619;SDS011;12763;55.802;37.404;2023-07-28T00:21:49;30.08;;;22.10;;
24619;SDS011;12763;55.802;37.404;2023-07-28T00:24:17;30.20;;;21.92;;
24619;SDS011;12763;55.802;37.404;2023-07-28T00:26:44;34.17;;;23.08;;
24619;SDS011;12763;55.802;37.404;2023-07-28T00:29:11;32.28;;;20.92;;
24619;SDS011;12763;55.802;37.404;2023-07-28T00:31:37;27.58;;;19.17;;
24619;SDS011;12763;55.802;37.404;2023-07-28T00:34:03;32.90;;;21.15;;
24619;SDS011;12763;55.802;37.404;2023-07-28T00:36:30;26.33;;;18.15;;
24619;SDS011;12763;55.802;37.404;2023-07-28T00:38:57;27.70;;;19.27;;
24619;SDS011;12763;55.802;37.404;2023-07-28T00:41:24;25.02;;;17.60;;
24619;SDS011;12763;55.802;37.404;2023-07-28T00:43:50;27.95;;;19.05;;
24619;SDS011;12763;55.802;37.404;2023-07-28T00:46:17;30.92;;;17.67;;
24619;SDS011;12763;55.802;37.404;2023-07-28T00:48:43;33.22;;;19.00;;
24619;SDS011;12763;55.802;37.404;2023-07-28T00:51:10;28.35;;;19.63;;
24619;SDS011;12763;55.802;37.404;2023-07-28T00:53:37;29.30;;;20.23;;
24619;SDS011;12763;55.802;37.404;2023-07-28T00:56:05;26.27;;;16.67;;
24619;SDS011;12763;55.802;37.404;2023-07-28T00:58:32;25.50;;;18.40;;
24619;SDS011;12763;55.802;37.404;2023-07-28T01:00:58;28.55;;;18.75;;
24619;SDS011;12763;55.802;37.404;2023-07-28T01:03:25;29.77;;;17.83;;
24619;SDS011;12763;55.802;37.404;2023-07-28T01:08:51;24.92;;;15.85;;
24619;SDS011;12763;55.802;37.404;2023-07-28T01:11:53;25.95;;;15.75;;
24619;SDS011;12763;55.802;37.404;2023-07-28T01:14:23;22.55;;;14.75;;
24619;SDS011;12763;55.802;37.404;2023-07-28T01:16:50;24.48;;;17.52;;
24619;SDS011;12763;55.802;37.404;2023-07-28T01:19:16;29.13;;;17.63;;
24619;SDS011;12763;55.802;37.404;2023-07-28T01:21:43;20.13;;;15.85;;
24619;SDS011;12763;55.802;37.404;2023-07-28T01:24:22;24.13;;;16.90;;
24619;SDS011;12763;55.802;37.404;2023-07-28T01:26:53;22.98;;;16.38;;
24619;SDS011;12763;55.802;37.404;2023-07-28T01:29:20;25.00;;;17.02;;
24619;SDS011;12763;55.802;37.404;2023-07-28T01:31:47;24.20;;;17.33;;
24619;SDS011;12763;55.802;37.404;2023-07-28T01:34:13;28.40;;;17.23;;
24619;SDS011;12763;55.802;37.404;2023-07-28T01:36:39;21.52;;;16.17;;
24619;SDS011;12763;55.802;37.404;2023-07-28T01:39:06;26.50;;;17.55;;
24619;SDS011;12763;55.802;37.404;2023-07-28T01:41:32;22.25;;;15.35;;
24619;SDS011;12763;55.802;37.404;2023-07-28T01:43:58;24.15;;;15.25;;
24619;SDS011;12763;55.802;37.404;2023-07-28T01:46:24;24.10;;;15.73;;
24619;SDS011;12763;55.802;37.404;2023-07-28T01:48:50;26.20;;;16.52;;
24619;SDS011;12763;55.802;37.404;2023-07-28T01:51:16;23.90;;;16.75;;
24619;SDS011;12763;55.802;37.404;2023-07-28T01:53:42;24.45;;;17.48;;
24619;SDS011;12763;55.802;37.404;2023-07-28T01:56:09;29.70;;;16.17;;
24619;SDS011;12763;55.802;37.404;2023-07-28T01:58:35;23.38;;;16.30;;
24619;SDS011;12763;55.802;37.404;2023-07-28T02:01:01;22.60;;;15.90;;
24619;SDS011;12763;55.802;37.404;2023-07-28T02:03:27;28.13;;;16.40;;
24619;SDS011;12763;55.802;37.404;2023-07-28T02:05:53;25.23;;;15.75;;
24619;SDS011;12763;55.802;37.404;2023-07-28T02:08:19;23.95;;;16.88;;
24619;SDS011;12763;55.802;37.404;2023-07-28T02:10:45;27.63;;;16.58;;
24619;SDS011;12763;55.802;37.404;2023-07-28T02:13:12;25.27;;;16.35;;
24619;SDS011;12763;55.802;37.404;2023-07-28T02:15:39;26.65;;;17.95;;
24619;SDS011;12763;55.802;37.404;2023-07-28T02:18:05;22.85;;;16.67;;
24619;SDS011;12763;55.802;37.404;2023-07-28T02:20:31;25.80;;;16.30;;
24619;SDS011;12763;55.802;37.404;2023-07-28T02:22:58;22.30;;;16.92;;
24619;SDS011;12763;55.802;37.404;2023-07-28T02:25:24;27.35;;;16.23;;
24619;SDS011;12763;55.802;37.404;2023-07-28T02:27:50;24.35;;;16.80;;
24619;SDS011;12763;55.802;37.404;2023-07-28T02:30:16;22.38;;;17.65;;
24619;SDS011;12763;55.802;37.404;2023-07-28T02:32:42;27.15;;;17.30;;
24619;SDS011;12763;55.802;37.404;2023-07-28T02:35:08;27.13;;;17.63;;
24619;SDS011;12763;55.802;37.404;2023-07-28T02:37:36;25.02;;;17.88;;
24619;SDS011;12763;55.802;37.404;2023-07-28T02:40:02;23.30;;;16.27;;
24619;SDS011;12763;55.802;37.404;2023-07-28T02:42:31;26.17;;;18.00;;
24619;SDS011;12763;55.802;37.404;2023-07-28T02:44:59;25.33;;;17.00;;
24619;SDS011;12763;55.802;37.404;2023-07-28T02:47:26;31.73;;;19.13;;
24619;SDS011;12763;55.802;37.404;2023-07-28T02:49:51;32.75;;;20.00;;
24619;SDS011;12763;55.802;37.404;2023-07-28T02:52:17;29.63;;;19.83;;
24619;SDS011;12763;55.802;37.404;2023-07-28T02:54:43;27.08;;;18.05;;
24619;SDS011;12763;55.802;37.404;2023-07-28T02:57:09;28.20;;;17.65;;
24619;SDS011;12763;55.802;37.404;2023-07-28T02:59:37;27.40;;;19.75;;
24619;SDS011;12763;55.802;37.404;2023-07-28T03:02:03;33.28;;;19.45;;
24619;SDS011;12763;55.802;37.404;2023-07-28T03:04:29;24.02;;;18.90;;
24619;SDS011;12763;55.802;37.404;2023-07-28T03:07:29;25.75;;;19.50;;
24619;SDS011;12763;55.802;37.404;2023-07-28T03:10:00;28.90;;;20.02;;
24619;SDS011;12763;55.802;37.404;2023-07-28T03:12:28;29.45;;;18.35;;
24619;SDS011;12763;55.802;37.404;2023-07-28T03:14:54;28.70;;;18.17;;
24619;SDS011;12763;55.802;37.404;2023-07-28T03:17:20;29.88;;;18.25;;
24619;SDS011;12763;55.802;37.404;2023-07-28T03:19:46;24.08;;;16.77;;
24619;SDS011;12763;55.802;37.404;2023-07-28T03:22:12;25.25;;;16.67;;
24619;SDS011;12763;55.802;37.404;2023-07-28T03:24:38;29.77;;;15.75;;
24619;SDS011;12763;55.802;37.404;2023-07-28T03:27:04;25.33;;;17.17;;
24619;SDS011;12763;55.802;37.404;2023-07-28T03:29:30;24.23;;;16.92;;
24619;SDS011;12763;55.802;37.404;2023-07-28T03:31:56;26.27;;;16.35;;
24619;SDS011;12763;55.802;37.404;2023-07-28T03:34:22;26.58;;;17.92;;
24619;SDS011;12763;55.802;37.404;2023-07-28T03:36:49;28.13;;;17.63;;
24619;SDS011;12763;55.802;37.404;2023-07-28T03:39:15;21.42;;;16.55;;
24619;SDS011;12763;55.802;37.404;2023-07-28T03:41:45;26.25;;;15.77;;
24619;SDS011;12763;55.802;37.404;2023-07-28T03:44:11;26.67;;;15.88;;
24619;SDS011;12763;55.802;37.404;2023-07-28T03:46:37;24.08;;;15.82;;
24619;SDS011;12763;55.802;37.404;2023-07-28T03:49:03;23.33;;;15.52;;
24619;SDS011;12763;55.802;37.404;2023-07-28T03:51:29;28.10;;;15.90;;
24619;SDS011;12763;55.802;37.404;2023-07-28T03:53:55;22.15;;;15.27;;
24619;SDS011;12763;55.802;37.404;2023-07-28T03:56:21;25.98;;;15.05;;
24619;SDS011;12763;55.802;37.404;2023-07-28T03:58:47;26.00;;;15.75;;
24619;SDS011;12763;55.802;37.404;2023-07-28T04:01:12;24.13;;;17.67;;
24619;SDS011;12763;55.802;37.404;2023-07-28T04:03:39;21.23;;;13.73;;
24619;SDS011;12763;55.802;37.404;2023-07-28T04:06:09;29.40;;;16.80;;
24619;SDS011;12763;55.802;37.404;2023-07-28T04:08:37;28.20;;;18.63;;
24619;SDS011;12763;55.802;37.404;2023-07-28T04:11:02;24.95;;;16.90;;
24619;SDS011;12763;55.802;37.404;2023-07-28T04:13:28;24.30;;;17.77;;
24619;SDS011;12763;55.802;37.404;2023-07-28T04:15:54;25.23;;;17.67;;
24619;SDS011;12763;55.802;37.404;2023-07-28T04:18:22;29.98;;;19.40;;
24619;SDS011;12763;55.802;37.404;2023-07-28T04:20:48;24.98;;;17.02;;
24619;SDS011;12763;55.802;37.404;2023-07-28T04:23:14;23.70;;;16.65;;
24619;SDS011;12763;55.802;37.404;2023-07-28T04:25:40;23.85;;;16.08;;
24619;SDS011;12763;55.802;37.404;2023-07-28T04:28:06;21.17;;;16.10;;
24619;SDS011;12763;55.802;37.404;2023-07-28T04:30:32;22.58;;;17.08;;
24619;SDS011;12763;55.802;37.404;2023-07-28T04:32:58;38.90;;;17.45;;
24619;SDS011;12763;55.802;37.404;2023-07-28T04:35:31;25.45;;;17.40;;
24619;SDS011;12763;55.802;37.404;2023-07-28T04:38:29;26.98;;;18.60;;
24619;SDS011;12763;55.802;37.404;2023-07-28T04:40:57;32.25;;;18.52;;
24619;SDS011;12763;55.802;37.404;2023-07-28T04:43:38;27.50;;;17.83;;
24619;SDS011;12763;55.802;37.404;2023-07-28T04:46:04;24.35;;;17.35;;
24619;SDS011;12763;55.802;37.404;2023-07-28T04:48:32;24.58;;;17.60;;
24619;SDS011;12763;55.802;37.404;2023-07-28T04:51:00;25.92;;;17.63;;
24619;SDS011;12763;55.802;37.404;2023-07-28T04:53:29;26.13;;;18.38;;
24619;SDS011;12763;55.802;37.404;2023-07-28T04:56:09;29.42;;;18.67;;
24619;SDS011;12763;55.802;37.404;2023-07-28T04:58:35;29.33;;;19.13;;
24619;SDS011;12763;55.802;37.404;2023-07-28T05:01:01;28.05;;;19.38;;
24619;SDS011;12763;55.802;37.404;2023-07-28T05:03:29;23.60;;;17.55;;
24619;SDS011;12763;55.802;37.404;2023-07-28T05:05:58;24.88;;;16.98;;
24619;SDS011;12763;55.802;37.404;2023-07-28T05:08:24;24.88;;;17.38;;
24619;SDS011;12763;55.802;37.404;2023-07-28T05:10:51;27.45;;;18.48;;
24619;SDS011;12763;55.802;37.404;2023-07-28T05:13:17;24.85;;;17.95;;
24619;SDS011;12763;55.802;37.404;2023-07-28T05:15:52;32.35;;;18.15;;
24619;SDS011;12763;55.802;37.404;2023-07-28T05:18:35;25.25;;;17.92;;
24619;SDS011;12763;55.802;37.404;2023-07-28T05:21:24;27.10;;;17.25;;
24619;SDS011;12763;55.802;37.404;2023-07-28T05:23:50;30.25;;;19.10;;
24619;SDS011;12763;55.802;37.404;2023-07-28T05:26:16;26.23;;;18.83;;
24619;SDS011;12763;55.802;37.404;2023-07-28T05:28:42;23.77;;;17.85;;
24619;SDS011;12763;55.802;37.404;2023-07-28T05:31:08;29.88;;;17.75;;
24619;SDS011;12763;55.802;37.404;2023-07-28T05:33:34;30.92;;;18.90;;
24619;SDS011;12763;55.802;37.404;2023-07-28T05:36:02;26.88;;;18.38;;
24619;SDS011;12763;55.802;37.404;2023-07-28T05:38:29;29.17;;;17.83;;
24619;SDS011;12763;55.802;37.404;2023-07-28T05:40:58;28.50;;;17.42;;
24619;SDS011;12763;55.802;37.404;2023-07-28T05:43:27;25.20;;;17.58;;
24619;SDS011;12763;55.802;37.404;2023-07-28T05:45:56;25.63;;;17.60;;
24619;SDS011;12763;55.802;37.404;2023-07-28T05:48:24;25.75;;;16.52;;
24619;SDS011;12763;55.802;37.404;2023-07-28T05:50:49;29.58;;;17.38;;
24619;SDS011;12763;55.802;37.404;2023-07-28T05:53:17;24.10;;;16.88;;
24619;SDS011;12763;55.802;37.404;2023-07-28T05:55:43;23.33;;;17.05;;
24619;SDS011;12763;55.802;37.404;2023-07-28T05:58:09;23.23;;;16.38;;
24619;SDS011;12763;55.802;37.404;2023-07-28T06:00:38;25.30;;;16.23;;
24619;SDS011;12763;55.802;37.404;2023-07-28T06:03:09;30.10;;;16.33;;
24619;SDS011;12763;55.802;37.404;2023-07-28T06:06:00;28.40;;;17.60;;
24619;SDS011;12763;55.802;37.404;2023-07-28T06:08:25;28.17;;;17.73;;
24619;SDS011;12763;55.802;37.404;2023-07-28T06:10:51;26.55;;;15.75;;
24619;SDS011;12763;55.802;37.404;2023-07-28T06:13:17;22.55;;;17.42;;
24619;SDS011;12763;55.802;37.404;2023-07-28T06:15:44;26.95;;;17.95;;
24619;SDS011;12763;55.802;37.404;2023-07-28T06:18:10;26.23;;;16.63;;
24619;SDS011;12763;55.802;37.404;2023-07-28T06:20:36;26.88;;;16.60;;
24619;SDS011;12763;55.802;37.404;2023-07-28T06:23:01;23.13;;;15.63;;
24619;SDS011;12763;55.802;37.404;2023-07-28T06:25:27;29.33;;;16.20;;
24619;SDS011;12763;55.802;37.404;2023-07-28T06:27:53;21.77;;;13.93;;
24619;SDS011;12763;55.802;37.404;2023-07-28T06:30:20;21.85;;;15.35;;
24619;SDS011;12763;55.802;37.404;2023-07-28T06:32:46;26.92;;;15.27;;
24619;SDS011;12763;55.802;37.404;2023-07-28T06:35:12;21.13;;;13.95;;
24619;SDS011;12763;55.802;37.404;2023-07-28T06:37:38;22.60;;;14.68;;
24619;SDS011;12763;55.802;37.404;2023-07-28T06:40:05;22.83;;;14.55;;
24619;SDS011;12763;55.802;37.404;2023-07-28T06:42:35;25.23;;;14.98;;
24619;SDS011;12763;55.802;37.404;2023-07-28T06:45:03;19.35;;;13.98;;
24619;SDS011;12763;55.802;37.404;2023-07-28T06:47:31;24.52;;;15.32;;
24619;SDS011;12763;55.802;37.404;2023-07-28T06:49:57;21.70;;;15.10;;
24619;SDS011;12763;55.802;37.404;2023-07-28T06:52:23;23.75;;;14.32;;
24619;SDS011;12763;55.802;37.404;2023-07-28T06:54:49;24.85;;;12.63;;
24619;SDS011;12763;55.802;37.404;2023-07-28T06:57:15;21.00;;;13.30;;
24619;SDS011;12763;55.802;37.404;2023-07-28T06:59:41;19.80;;;13.57;;
24619;SDS011;12763;55.802;37.404;2023-07-28T07:02:08;22.40;;;14.27;;
24619;SDS011;12763;55.802;37.404;2023-07-28T07:04:35;23.10;;;14.05;;
24619;SDS011;12763;55.802;37.404;2023-07-28T07:07:01;20.27;;;14.38;;
24619;SDS011;12763;55.802;37.404;2023-07-28T07:09:28;23.58;;;14.13;;
24619;SDS011;12763;55.802;37.404;2023-07-28T07:11:54;24.23;;;13.95;;
24619;SDS011;12763;55.802;37.404;2023-07-28T07:14:20;23.88;;;14.88;;
24619;SDS011;12763;55.802;37.404;2023-07-28T07:16:46;21.15;;;13.95;;
24619;SDS011;12763;55.802;37.404;2023-07-28T07:19:14;21.50;;;13.10;;
24619;SDS011;12763;55.802;37.404;2023-07-28T07:21:41;20.80;;;13.93;;
24619;SDS011;12763;55.802;37.404;2023-07-28T07:24:07;19.45;;;13.88;;
24619;SDS011;12763;55.802;37.404;2023-07-28T07:26:35;26.80;;;16.13;;
24619;SDS011;12763;55.802;37.404;2023-07-28T07:29:01;25.35;;;14.93;;
24619;SDS011;12763;55.802;37.404;2023-07-28T07:31:28;21.20;;;14.30;;
24619;SDS011;12763;55.802;37.404;2023-07-28T07:33:54;21.75;;;14.55;;
24619;SDS011;12763;55.802;37.404;2023-07-28T07:36:20;26.23;;;15.02;;
24619;SDS011;12763;55.802;37.404;2023-07-28T07:38:46;22.70;;;15.38;;
24619;SDS011;12763;55.802;37.404;2023-07-28T07:41:12;20.90;;;14.60;;
24619;SDS011;12763;55.802;37.404;2023-07-28T07:43:41;22.33;;;15.25;;
24619;SDS011;12763;55.802;37.404;2023-07-28T07:46:07;26.30;;;14.85;;
24619;SDS011;12763;55.802;37.404;2023-07-28T07:48:34;23.35;;;13.77;;
24619;SDS011;12763;55.802;37.404;2023-07-28T07:51:00;22.45;;;13.95;;
24619;SDS011;12763;55.802;37.404;2023-07-28T07:53:25;21.40;;;14.65;;
24619;SDS011;12763;55.802;37.404;2023-07-28T07:55:51;23.00;;;14.80;;
24619;SDS011;12763;55.802;37.404;2023-07-28T07:58:17;22.05;;;15.82;;
24619;SDS011;12763;55.802;37.404;2023-07-28T08:00:43;27.42;;;16.05;;
24619;SDS011;12763;55.802;37.404;2023-07-28T08:03:09;23.83;;;16.38;;
24619;SDS011;12763;55.802;37.404;2023-07-28T08:05:35;25.17;;;16.30;;
24619;SDS011;12763;55.802;37.404;2023-07-28T08:08:01;30.25;;;16.90;;
24619;SDS011;12763;55.802;37.404;2023-07-28T08:10:28;29.67;;;16.75;;
24619;SDS011;12763;55.802;37.404;2023-07-28T08:12:54;26.45;;;17.02;;
24619;SDS011;12763;55.802;37.404;2023-07-28T08:15:20;29.70;;;16.90;;
24619;SDS011;12763;55.802;37.404;2023-07-28T08:17:47;28.48;;;17.50;;
24619;SDS011;12763;55.802;37.404;2023-07-28T08:20:13;30.85;;;17.27;;
24619;SDS011;12763;55.802;37.404;2023-07-28T08:22:38;26.48;;;16.88;;
24619;SDS011;12763;55.802;37.404;2023-07-28T08:25:05;26.92;;;15.95;;
24619;SDS011;12763;55.802;37.404;2023-07-28T08:27:31;27.85;;;16.67;;
24619;SDS011;12763;55.802;37.404;2023-07-28T08:29:56;21.88;;;13.23;;
24619;SDS011;12763;55.802;37.404;2023-07-28T08:32:22;23.85;;;13.10;;
24619;SDS011;12763;55.802;37.404;2023-07-28T08:34:48;19.75;;;12.93;;
24619;SDS011;12763;55.802;37.404;2023-07-28T08:37:14;20.38;;;12.70;;
24619;SDS011;12763;55.802;37.404;2023-07-28T08:39:40;23.67;;;14.27;;
24619;SDS011;12763;55.802;37.404;2023-07-28T08:42:06;23.75;;;13.05;;
24619;SDS011;12763;55.802;37.404;2023-07-28T08:44:32;22.25;;;13.00;;
24619;SDS011;12763;55.802;37.404;2023-07-28T08:47:00;21.48;;;13.40;;
24619;SDS011;12763;55.802;37.404;2023-07-28T08:49:27;23.20;;;13.25;;
24619;SDS011;12763;55.802;37.404;2023-07-28T08:51:57;28.00;;;13.80;;
24619;SDS011;12763;55.802;37.404;2023-07-28T08:54:24;19.33;;;13.30;;
24619;SDS011;12763;55.802;37.404;2023-07-28T08:56:49;18.80;;;12.70;;
24619;SDS011;12763;55.802;37.404;2023-07-28T08:59:25;17.23;;;12.27;;
24619;SDS011;12763;55.802;37.404;2023-07-28T09:01:54;17.30;;;12.93;;
24619;SDS011;12763;55.802;37.404;2023-07-28T09:04:21;17.70;;;12.10;;
24619;SDS011;12763;55.802;37.404;2023-07-28T09:06:48;21.17;;;12.45;;
24619;SDS011;12763;55.802;37.404;2023-07-28T09:09:15;18.67;;;11.45;;
24619;SDS011;12763;55.802;37.404;2023-07-28T09:11:46;17.77;;;12.73;;
24619;SDS011;12763;55.802;37.404;2023-07-28T09:14:14;17.52;;;12.13;;
24619;SDS011;12763;55.802;37.404;2023-07-28T09:16:47;18.58;;;12.05;;
24619;SDS011;12763;55.802;37.404;2023-07-28T09:19:13;16.00;;;12.32;;
24619;SDS011;12763;55.802;37.404;2023-07-28T09:21:39;16.30;;;10.80;;
24619;SDS011;12763;55.802;37.404;2023-07-28T09:24:12;15.15;;;10.77;;
24619;SDS011;12763;55.802;37.404;2023-07-28T09:26:39;19.45;;;11.35;;
24619;SDS011;12763;55.802;37.404;2023-07-28T09:29:15;15.73;;;11.00;;
24619;SDS011;12763;55.802;37.404;2023-07-28T09:31:48;17.80;;;10.38;;
24619;SDS011;12763;55.802;37.404;2023-07-28T09:34:25;15.85;;;10.43;;
24619;SDS011;12763;55.802;37.404;2023-07-28T09:36:55;15.38;;;10.82;;
24619;SDS011;12763;55.802;37.404;2023-07-28T09:39:22;18.30;;;11.20;;
24619;SDS011;12763;55.802;37.404;2023-07-28T09:41:48;14.60;;;10.07;;
24619;SDS011;12763;55.802;37.404;2023-07-28T09:44:14;15.25;;;11.43;;
24619;SDS011;12763;55.802;37.404;2023-07-28T09:46:49;15.52;;;11.07;;
24619;SDS011;12763;55.802;37.404;2023-07-28T09:49:15;14.18;;;11.18;;
24619;SDS011;12763;55.802;37.404;2023-07-28T09:51:48;17.55;;;11.05;;
24619;SDS011;12763;55.802;37.404;2023-07-28T09:54:24;20.70;;;12.15;;
24619;SDS011;12763;55.802;37.404;2023-07-28T09:56:55;17.27;;;12.07;;
24619;SDS011;12763;55.802;37.404;2023-07-28T09:59:28;15.82;;;11.65;;
24619;SDS011;12763;55.802;37.404;2023-07-28T10:02:01;17.48;;;13.65;;
24619;SDS011;12763;55.802;37.404;2023-07-28T10:04:29;20.02;;;12.18;;
24619;SDS011;12763;55.802;37.404;2023-07-28T10:06:55;19.10;;;11.48;;
24619;SDS011;12763;55.802;37.404;2023-07-28T10:09:26;18.67;;;12.05;;
24619;SDS011;12763;55.802;37.404;2023-07-28T10:11:53;18.58;;;13.45;;
24619;SDS011;12763;55.802;37.404;2023-07-28T10:14:28;15.65;;;11.38;;
24619;SDS011;12763;55.802;37.404;2023-07-28T10:16:58;15.90;;;12.15;;
24619;SDS011;12763;55.802;37.404;2023-07-28T10:19:28;18.08;;;12.07;;
24619;SDS011;12763;55.802;37.404;2023-07-28T10:22:01;21.35;;;12.60;;
24619;SDS011;12763;55.802;37.404;2023-07-28T10:27:39;16.55;;;11.65;;
24619;SDS011;12763;55.802;37.404;2023-07-28T10:30:08;20.27;;;12.18;;
24619;SDS011;12763;55.802;37.404;2023-07-28T10:32:40;16.15;;;10.57;;
24619;SDS011;12763;55.802;37.404;2023-07-28T10:35:09;16.88;;;11.68;;
24619;SDS011;12763;55.802;37.404;2023-07-28T10:37:48;18.58;;;12.48;;
24619;SDS011;12763;55.802;37.404;2023-07-28T10:40:33;15.00;;;11.07;;
24619;SDS011;12763;55.802;37.404;2023-07-28T10:43:01;13.75;;;10.88;;
24619;SDS011;12763;55.802;37.404;2023-07-28T10:45:29;15.40;;;11.10;;
24619;SDS011;12763;55.802;37.404;2023-07-28T10:47:56;14.48;;;10.45;;
24619;SDS011;12763;55.802;37.404;2023-07-28T10:50:28;15.50;;;11.02;;
24619;SDS011;12763;55.802;37.404;2023-07-28T10:52:55;14.98;;;10.75;;
24619;SDS011;12763;55.802;37.404;2023-07-28T10:55:23;15.48;;;11.27;;
24619;SDS011;12763;55.802;37.404;2023-07-28T10:57:51;16.58;;;11.98;;
24619;SDS011;12763;55.802;37.404;2023-07-28T11:00:19;17.08;;;12.95;;
24619;SDS011;12763;55.802;37.404;2023-07-28T11:02:49;13.50;;;11.18;;
24619;SDS011;12763;55.802;37.404;2023-07-28T11:05:20;15.27;;;12.18;;
24619;SDS011;12763;55.802;37.404;2023-07-28T11:07:47;22.15;;;12.23;;
24619;SDS011;12763;55.802;37.404;2023-07-28T11:10:13;12.35;;;9.50;;
24619;SDS011;12763;55.802;37.404;2023-07-28T11:12:40;15.38;;;10.98;;
24619;SDS011;12763;55.802;37.404;2023-07-28T11:15:11;14.93;;;10.85;;
24619;SDS011;12763;55.802;37.404;2023-07-28T11:17:42;17.88;;;12.15;;
24619;SDS011;12763;55.802;37.404;2023-07-28T11:22:41;17.52;;;11.63;;
24619;SDS011;12763;55.802;37.404;2023-07-28T11:25:06;18.40;;;11.98;;
24619;SDS011;12763;55.802;37.404;2023-07-28T11:27:38;19.08;;;12.52;;
24619;SDS011;12763;55.802;37.404;2023-07-28T11:30:04;14.90;;;11.38;;
24619;SDS011;12763;55.802;37.404;2023-07-28T11:32:36;16.75;;;11.02;;
24619;SDS011;12763;55.802;37.404;2023-07-28T11:35:06;15.38;;;10.00;;
24619;SDS011;12763;55.802;37.404;2023-07-28T11:37:34;16.83;;;11.75;;
24619;SDS011;12763;55.802;37.404;2023-07-28T11:40:02;16.35;;;11.20;;
24619;SDS011;12763;55.802;37.404;2023-07-28T11:42:35;18.80;;;11.20;;
24619;SDS011;12763;55.802;37.404;2023-07-28T11:45:06;18.30;;;12.00;;
24619;SDS011;12763;55.802;37.404;2023-07-28T11:47:33;18.02;;;12.52;;
24619;SDS011;12763;55.802;37.404;2023-07-28T11:49:59;17.58;;;10.90;;
24619;SDS011;12763;55.802;37.404;2023-07-28T11:52:31;17.23;;;11.90;;
24619;SDS011;12763;55.802;37.404;2023-07-28T11:55:01;13.50;;;8.10;;
24619;SDS011;12763;55.802;37.404;2023-07-28T11:57:31;14.30;;;8.75;;
24619;SDS011;12763;55.802;37.404;2023-07-28T12:00:01;11.52;;;6.38;;
24619;SDS011;12763;55.802;37.404;2023-07-28T12:02:31;8.30;;;5.00;;
24619;SDS011;12763;55.802;37.404;2023-07-28T12:04:59;5.70;;;4.10;;
24619;SDS011;12763;55.802;37.404;2023-07-28T12:07:28;7.05;;;4.57;;
24619;SDS011;12763;55.802;37.404;2023-07-28T12:09:56;8.43;;;4.75;;
24619;SDS011;12763;55.802;37.404;2023-07-28T12:12:26;7.93;;;4.90;;
24619;SDS011;12763;55.802;37.404;2023-07-28T12:14:57;7.80;;;4.75;;
24619;SDS011;12763;55.802;37.404;2023-07-28T12:17:31;9.85;;;4.50;;
24619;SDS011;12763;55.802;37.404;2023-07-28T12:22:26;9.10;;;4.10;;
24619;SDS011;12763;55.802;37.404;2023-07-28T12:24:53;5.40;;;3.78;;
24619;SDS011;12763;55.802;37.404;2023-07-28T12:27:20;8.40;;;4.40;;
24619;SDS011;12763;55.802;37.404;2023-07-28T12:29:49;5.50;;;4.40;;
24619;SDS011;12763;55.802;37.404;2023-07-28T12:32:16;6.15;;;4.70;;
24619;SDS011;12763;55.802;37.404;2023-07-28T12:34:43;8.25;;;4.43;;
24619;SDS011;12763;55.802;37.404;2023-07-28T12:37:08;5.75;;;4.10;;
24619;SDS011;12763;55.802;37.404;2023-07-28T12:39:38;5.63;;;4.15;;
24619;SDS011;12763;55.802;37.404;2023-07-28T12:42:05;7.45;;;3.88;;
24619;SDS011;12763;55.802;37.404;2023-07-28T12:44:32;5.22;;;3.78;;
24619;SDS011;12763;55.802;37.404;2023-07-28T12:46:58;6.05;;;4.20;;
24619;SDS011;12763;55.802;37.404;2023-07-28T12:49:24;8.73;;;4.68;;
24619;SDS011;12763;55.802;37.404;2023-07-28T12:51:49;6.65;;;4.30;;
24619;SDS011;12763;55.802;37.404;2023-07-28T12:54:15;8.57;;;4.35;;
24619;SDS011;12763;55.802;37.404;2023-07-28T12:56:42;4.85;;;3.63;;
24619;SDS011;12763;55.802;37.404;2023-07-28T12:59:08;5.90;;;3.90;;
24619;SDS011;12763;55.802;37.404;2023-07-28T13:01:36;4.90;;;3.10;;
24619;SDS011;12763;55.802;37.404;2023-07-28T13:04:03;3.85;;;2.92;;
24619;SDS011;12763;55.802;37.404;2023-07-28T13:06:29;6.20;;;3.80;;
24619;SDS011;12763;55.802;37.404;2023-07-28T13:08:55;7.90;;;3.38;;
24619;SDS011;12763;55.802;37.404;2023-07-28T13:11:20;6.65;;;3.45;;
24619;SDS011;12763;55.802;37.404;2023-07-28T13:13:46;3.95;;;3.13;;
24619;SDS011;12763;55.802;37.404;2023-07-28T13:16:12;5.20;;;3.63;;
24619;SDS011;12763;55.802;37.404;2023-07-28T13:18:38;4.85;;;3.30;;
24619;SDS011;12763;55.802;37.404;2023-07-28T13:21:05;5.07;;;3.28;;
24619;SDS011;12763;55.802;37.404;2023-07-28T13:23:31;4.43;;;3.00;;
24619;SDS011;12763;55.802;37.404;2023-07-28T13:25:58;4.10;;;3.28;;
24619;SDS011;12763;55.802;37.404;2023-07-28T13:28:24;4.65;;;3.08;;
24619;SDS011;12763;55.802;37.404;2023-07-28T13:30:51;4.15;;;3.10;;
24619;SDS011;12763;55.802;37.404;2023-07-28T13:33:17;8.88;;;3.50;;
24619;SDS011;12763;55.802;37.404;2023-07-28T13:35:43;3.15;;;2.67;;
24619;SDS011;12763;55.802;37.404;2023-07-28T13:38:09;3.55;;;2.72;;
24619;SDS011;12763;55.802;37.404;2023-07-28T13:40:35;3.45;;;2.33;;
24619;SDS011;12763;55.802;37.404;2023-07-28T13:43:01;3.88;;;2.50;;
24619;SDS011;12763;55.802;37.404;2023-07-28T13:45:27;4.47;;;2.85;;
24619;SDS011;12763;55.802;37.404;2023-07-28T13:47:53;5.30;;;3.22;;
24619;SDS011;12763;55.802;37.404;2023-07-28T13:50:19;5.68;;;3.03;;
24619;SDS011;12763;55.802;37.404;2023-07-28T13:52:44;4.75;;;2.53;;
24619;SDS011;12763;55.802;37.404;2023-07-28T13:55:10;4.22;;;2.88;;
24619;SDS011;12763;55.802;37.404;2023-07-28T13:57:36;6.05;;;3.22;;
24619;SDS011;12763;55.802;37.404;2023-07-28T14:00:03;3.40;;;2.60;;
24619;SDS011;12763;55.802;37.404;2023-07-28T14:02:31;5.55;;;3.55;;
24619;SDS011;12763;55.802;37.404;2023-07-28T14:04:57;3.67;;;2.75;;
24619;SDS011;12763;55.802;37.404;2023-07-28T14:07:23;7.07;;;3.85;;
24619;SDS011;12763;55.802;37.404;2023-07-28T14:09:49;4.68;;;3.00;;
24619;SDS011;12763;55.802;37.404;2023-07-28T14:12:15;7.10;;;4.18;;
24619;SDS011;12763;55.802;37.404;2023-07-28T14:14:41;6.03;;;3.60;;
24619;SDS011;12763;55.802;37.404;2023-07-28T14:17:06;6.70;;;4.10;;
24619;SDS011;12763;55.802;37.404;2023-07-28T14:19:32;6.30;;;3.78;;
24619;SDS011;12763;55.802;37.404;2023-07-28T14:21:58;5.75;;;3.47;;
24619;SDS011;12763;55.802;37.404;2023-07-28T14:24:24;6.55;;;3.60;;
24619;SDS011;12763;55.802;37.404;2023-07-28T14:26:50;5.53;;;3.88;;
24619;SDS011;12763;55.802;37.404;2023-07-28T14:29:16;6.10;;;3.95;;